Time;durP1;ratioP1;P1;durP2;ratioP2;P2;SDS_P1;SDS_P2;PMS_P1;PMS_P2;Temp;Humidity;BMP_temperature;BMP_pressure;BME280_temperature;BME280_humidity;BME280_pressure;Samples;Min_cycle;Max_cycle;Signal;HPM_P1;HPM_P2
2023/11/20 00:00:12;;;;;;;7.60;5.20;;;;;;;-0.87;61.74;99015.03;107052;1262;60679;-38
2023/11/20 00:02:43;;;;;;;8.90;5.70;;;;;;;-0.88;61.76;99010.15;107088;1260;61789;-38
2023/11/20 00:05:11;;;;;;;9.90;6.10;;;;;;;-0.86;61.62;99012.83;107116;1257;73115;-38
2023/11/20 00:07:40;;;;;;;8.10;5.30;;;;;;;-0.87;61.39;99011.94;107135;1257;66724;-38
2023/11/20 00:10:08;;;;;;;7.30;5.30;;;;;;;-0.90;61.37;99011.40;107126;1257;72694;-38
2023/11/20 00:12:36;;;;;;;8.30;5.60;;;;;;;-0.92;61.52;99007.24;107202;1257;60334;-39
2023/11/20 00:15:04;;;;;;;9.30;5.80;;;;;;;-0.93;61.81;99014.19;107120;1257;60597;-39
2023/11/20 00:17:31;;;;;;;9.70;5.80;;;;;;;-0.92;61.77;99010.49;107115;1257;73883;-39
2023/11/20 00:19:59;;;;;;;8.90;5.40;;;;;;;-0.91;61.89;99004.88;107250;1257;67617;-38
2023/11/20 00:22:27;;;;;;;7.70;5.20;;;;;;;-0.89;61.81;99004.69;107183;1258;71466;-38
2023/11/20 00:24:56;;;;;;;8.40;5.50;;;;;;;-0.89;61.72;99008.85;106436;1257;1002935;-38
2023/11/20 00:27:23;;;;;;;7.70;5.60;;;;;;;-0.91;61.59;99006.38;107152;1263;60905;-38
2023/11/20 00:29:51;;;;;;;8.60;5.70;;;;;;;-0.95;61.66;99010.10;107161;1257;73828;-38
2023/11/20 00:32:18;;;;;;;8.10;5.50;;;;;;;-0.97;61.75;99008.84;107188;1257;66266;-39
2023/11/20 00:34:46;;;;;;;8.20;5.10;;;;;;;-0.98;62.17;99006.60;107222;1257;71363;-39
2023/11/20 00:37:14;;;;;;;7.20;5.00;;;;;;;-0.94;61.99;99000.67;107078;1264;60898;-38
2023/11/20 00:39:45;;;;;;;7.50;4.70;;;;;;;-0.84;62.07;98994.60;107245;1257;60511;-38
2023/11/20 00:42:13;;;;;;;7.20;5.00;;;;;;;-0.79;61.92;98994.73;107226;1257;74202;-38
2023/11/20 00:44:41;;;;;;;7.30;4.90;;;;;;;-0.79;61.77;98990.89;107202;1257;66644;-38
2023/11/20 00:47:11;;;;;;;6.60;4.50;;;;;;;-0.80;61.79;98988.19;107115;1257;72744;-38
2023/11/20 00:49:38;;;;;;;7.70;5.10;;;;;;;-0.80;61.62;98981.85;107087;1258;60338;-39
2023/11/20 00:52:06;;;;;;;9.50;5.10;;;;;;;-0.81;61.66;98976.81;107185;1257;61083;-39
2023/11/20 00:54:34;;;;;;;6.60;4.70;;;;;;;-0.83;61.61;98971.16;107242;1257;73846;-39
2023/11/20 00:57:01;;;;;;;6.00;4.80;;;;;;;-0.88;61.54;98967.34;107211;1257;67548;-39
2023/11/20 00:59:30;;;;;;;7.90;5.00;;;;;;;-0.91;61.59;98967.95;107180;1257;72728;-39
2023/11/20 01:01:57;;;;;;;7.90;4.60;;;;;;;-0.94;61.75;98967.90;107187;1257;60420;-39
2023/11/20 01:04:25;;;;;;;6.30;4.60;;;;;;;-0.95;62.06;98967.22;107154;1257;60437;-38
2023/11/20 01:06:52;;;;;;;5.70;4.40;;;;;;;-0.93;62.11;98962.46;107170;1257;72885;-38
2023/11/20 01:09:21;;;;;;;6.70;4.80;;;;;;;-0.93;62.21;98960.77;107188;1257;66767;-38
2023/11/20 01:11:49;;;;;;;7.20;5.00;;;;;;;-0.90;62.22;98963.73;107216;1257;71407;-38
2023/11/20 01:14:17;;;;;;;9.10;5.60;;;;;;;-0.89;62.02;98959.77;107070;1257;173976;-39
2023/11/20 01:18:47;;;;;;;6.50;4.80;;;;;;;-0.90;62.06;98959.09;105022;1283;600600;-38
2023/11/20 01:21:15;;;;;;;6.70;5.00;;;;;;;-0.91;62.18;98956.58;106734;1267;59228;-38
2023/11/20 01:23:42;;;;;;;7.40;4.90;;;;;;;-0.91;62.09;98954.41;106636;1270;59998;-38
2023/11/20 01:26:10;;;;;;;8.30;5.00;;;;;;;-0.91;62.26;98951.39;106734;1267;72214;-37
2023/11/20 01:28:37;;;;;;;8.50;4.90;;;;;;;-0.93;62.13;98951.49;106631;1265;68106;-38
2023/11/20 01:31:05;;;;;;;9.70;5.40;;;;;;;-0.95;62.02;98948.16;106618;1266;72685;-38
2023/11/20 01:33:32;;;;;;;7.40;4.90;;;;;;;-0.96;61.97;98946.41;106564;1264;197454;-38
2023/11/20 01:36:00;;;;;;;8.40;5.50;;;;;;;-0.97;62.22;98940.15;106751;1262;59277;-38
2023/11/20 01:38:27;;;;;;;8.70;5.20;;;;;;;-0.97;62.13;98942.66;106740;1268;71760;-38
2023/11/20 01:40:55;;;;;;;7.40;5.00;;;;;;;-1.01;62.32;98941.84;106771;1262;68461;-38
2023/11/20 01:43:24;;;;;;;7.30;5.10;;;;;;;-1.06;62.47;98935.90;106742;1267;71441;-38
2023/11/20 01:45:51;;;;;;;9.20;4.90;;;;;;;-1.01;62.38;98938.23;106824;1262;59458;-38
2023/11/20 01:48:19;;;;;;;6.60;4.60;;;;;;;-0.91;62.54;98941.08;106796;1262;60052;-38
2023/11/20 01:50:47;;;;;;;7.40;4.70;;;;;;;-0.86;62.46;98940.44;106739;1263;71787;-38
2023/11/20 01:53:15;;;;;;;12.90;7.60;;;;;;;-0.85;62.61;98943.24;106790;1264;67750;-38
2023/11/20 01:55:42;;;;;;;35.00;15.10;;;;;;;-0.83;62.52;98938.96;106751;1263;71404;-38
2023/11/20 01:58:10;;;;;;;20.60;11.10;;;;;;;-0.80;62.41;98935.66;106789;1263;59633;-38
2023/11/20 02:00:37;;;;;;;19.10;10.90;;;;;;;-0.78;62.50;98935.45;106731;1269;61269;-38
2023/11/20 02:03:06;;;;;;;37.10;18.80;;;;;;;-0.75;62.25;98935.45;106776;1264;72077;-38
2023/11/20 02:05:34;;;;;;;50.00;24.50;;;;;;;-0.75;62.04;98936.52;106745;1264;66642;-38
2023/11/20 02:08:02;;;;;;;42.40;21.20;;;;;;;-0.79;62.11;98937.82;106803;1264;72824;-38
2023/11/20 02:10:30;;;;;;;37.60;18.90;;;;;;;-0.85;61.92;98934.20;105972;1267;1003402;-38
2023/11/20 02:12:58;;;;;;;44.90;23.30;;;;;;;-0.88;62.19;98939.11;106890;1264;59354;-38
2023/11/20 02:15:26;;;;;;;70.90;35.00;;;;;;;-0.90;62.64;98937.77;106802;1264;73041;-38
2023/11/20 02:17:54;;;;;;;60.90;33.00;;;;;;;-0.93;62.61;98937.42;106711;1267;66346;-38
2023/11/20 02:20:24;;;;;;;66.80;34.80;;;;;;;-0.94;62.63;98933.56;105838;1266;1003570;-38
2023/11/20 02:22:52;;;;;;;68.10;34.00;;;;;;;-0.93;62.67;98932.54;106605;1265;59724;-38
2023/11/20 02:25:19;;;;;;;18.90;11.40;;;;;;;-0.93;62.51;98929.95;106676;1270;60011;-39
2023/11/20 02:28:26;;;;;;;23.60;13.60;;;;;;;-0.95;62.34;98923.90;106602;1266;72465;-39
2023/11/20 02:30:56;;;;;;;28.50;16.10;;;;;;;-0.98;62.27;98923.91;106956;1262;67932;-39
2023/11/20 02:33:24;;;;;;;37.40;21.40;;;;;;;-1.01;62.44;98923.64;106798;1260;72673;-39
2023/11/20 02:35:51;;;;;;;30.60;18.30;;;;;;;-1.03;62.67;98922.67;107036;1257;59592;-39
2023/11/20 02:38:20;;;;;;;42.70;24.90;;;;;;;-1.04;62.70;98925.52;107067;1258;60088;-39
2023/11/20 02:40:48;;;;;;;40.00;23.00;;;;;;;-1.05;62.75;98926.91;107076;1257;73082;-39
2023/11/20 02:43:15;;;;;;;27.40;15.50;;;;;;;-1.04;62.76;98930.61;107035;1257;68074;-39
2023/11/20 02:45:44;;;;;;;35.80;20.50;;;;;;;-1.04;62.91;98929.39;107061;1257;73019;-39
2023/11/20 02:48:11;;;;;;;27.50;15.50;;;;;;;-1.02;63.06;98927.44;107030;1259;59606;-39
2023/11/20 02:50:39;;;;;;;17.30;10.60;;;;;;;-1.00;62.95;98928.63;107109;1257;60017;-39
2023/11/20 02:53:07;;;;;;;18.40;10.70;;;;;;;-1.01;62.87;98929.19;107114;1257;72448;-39
2023/11/20 02:55:34;;;;;;;11.00;6.00;;;;;;;-1.03;62.83;98928.16;107110;1257;66772;-39
2023/11/20 02:58:03;;;;;;;8.90;6.10;;;;;;;-1.05;62.75;98924.02;107076;1257;72705;-39
2023/11/20 03:00:31;;;;;;;9.60;6.70;;;;;;;-1.07;62.84;98919.93;107084;1260;59663;-39
2023/11/20 03:02:58;;;;;;;9.20;5.40;;;;;;;-1.09;62.91;98915.59;107098;1257;59704;-39
2023/11/20 03:05:27;;;;;;;7.70;4.80;;;;;;;-1.04;62.81;98916.34;107326;1256;71766;-39
2023/11/20 03:07:54;;;;;;;7.60;5.10;;;;;;;-0.94;62.73;98911.44;107056;1259;67643;-39
2023/11/20 03:10:22;;;;;;;12.60;7.20;;;;;;;-0.91;62.69;98907.96;107022;1262;72764;-39
2023/11/20 03:12:49;;;;;;;10.40;5.90;;;;;;;-0.87;62.80;98909.23;107041;1257;59621;-39
2023/11/20 03:15:17;;;;;;;7.60;5.40;;;;;;;-0.83;62.69;98900.38;107055;1262;59625;-39
2023/11/20 03:17:44;;;;;;;7.00;5.00;;;;;;;-0.79;62.54;98899.65;107144;1256;73126;-39
2023/11/20 03:20:12;;;;;;;7.80;5.10;;;;;;;-0.76;62.54;98897.35;107278;1256;67588;-39
2023/11/20 03:22:40;;;;;;;7.20;5.20;;;;;;;-0.75;62.21;98894.90;107244;1257;72674;-39
2023/11/20 03:25:09;;;;;;;7.30;4.80;;;;;;;-0.76;62.40;98890.59;107253;1257;59908;-39
2023/11/20 03:27:38;;;;;;;7.60;5.10;;;;;;;-0.78;62.40;98885.01;107250;1257;60067;-39
2023/11/20 03:30:08;;;;;;;5.80;4.70;;;;;;;-0.78;62.36;98883.25;107245;1257;73042;-39
2023/11/20 03:32:36;;;;;;;7.50;4.90;;;;;;;-0.78;62.46;98882.98;107260;1257;68723;-39
2023/11/20 03:35:06;;;;;;;8.20;4.70;;;;;;;-0.80;62.01;98879.40;107199;1256;72471;-39
2023/11/20 03:37:34;;;;;;;6.00;4.70;;;;;;;-0.83;62.25;98876.44;107186;1257;60181;-39
2023/11/20 03:40:03;;;;;;;7.90;5.40;;;;;;;-0.85;62.20;98875.23;107155;1257;60030;-39
2023/11/20 03:42:31;;;;;;;7.30;5.20;;;;;;;-0.87;62.13;98873.78;107284;1257;73285;-39
2023/11/20 03:44:58;;;;;;;8.10;5.20;;;;;;;-0.89;62.25;98873.24;107286;1260;67600;-39
2023/11/20 03:47:26;;;;;;;6.10;4.70;;;;;;;-0.93;62.07;98869.54;107221;1257;71363;-39
2023/11/20 03:49:54;;;;;;;7.70;5.10;;;;;;;-0.95;62.22;98861.33;107225;1257;59667;-39
2023/11/20 03:52:21;;;;;;;7.10;4.80;;;;;;;-0.95;62.49;98855.89;107262;1257;59529;-39
2023/11/20 03:54:49;;;;;;;8.90;4.90;;;;;;;-0.95;62.65;98857.64;107153;1257;73113;-39
2023/11/20 03:57:16;;;;;;;7.00;5.30;;;;;;;-0.94;62.53;98858.81;107288;1257;66281;-39
2023/11/20 03:59:44;;;;;;;8.90;5.20;;;;;;;-0.92;62.61;98852.98;107260;1257;72494;-39
2023/11/20 04:02:11;;;;;;;7.40;5.20;;;;;;;-0.93;62.49;98853.70;107157;1259;59861;-39
2023/11/20 04:04:39;;;;;;;7.10;5.40;;;;;;;-0.95;62.55;98854.46;107260;1257;60034;-39
2023/11/20 04:07:07;;;;;;;6.70;5.10;;;;;;;-0.99;62.31;98850.98;107225;1256;73028;-39
2023/11/20 04:09:34;;;;;;;8.80;5.50;;;;;;;-1.03;62.23;98846.44;107147;1257;67582;-39
2023/11/20 04:12:04;;;;;;;6.50;5.00;;;;;;;-1.07;62.40;98847.42;107074;1257;71583;-39
2023/11/20 04:14:31;;;;;;;8.20;5.50;;;;;;;-1.18;62.57;98833.69;107176;1257;59596;-39
2023/11/20 04:16:59;;;;;;;7.70;5.40;;;;;;;-1.20;62.60;98841.07;107126;1260;59147;-39
2023/11/20 04:19:27;;;;;;;6.90;5.20;;;;;;;-1.26;62.54;98844.23;107163;1257;73059;-39
2023/11/20 04:21:55;;;;;;;7.70;5.00;;;;;;;-1.29;62.72;98843.42;107177;1257;67595;-39
2023/11/20 04:24:23;;;;;;;8.10;5.20;;;;;;;-1.32;62.91;98851.22;107078;1257;72683;-39
2023/11/20 04:26:51;;;;;;;8.10;5.00;;;;;;;-1.35;63.14;98854.30;107311;1257;59145;-39
2023/11/20 04:29:18;;;;;;;6.80;5.20;;;;;;;-1.38;63.27;98855.69;107266;1257;60036;-39
2023/11/20 04:31:46;;;;;;;7.90;5.00;;;;;;;-1.38;63.26;98858.09;107233;1257;73024;-39
2023/11/20 04:34:14;;;;;;;6.80;4.60;;;;;;;-1.28;63.11;98857.70;107225;1257;65612;-39
2023/11/20 04:36:41;;;;;;;6.40;4.70;;;;;;;-1.18;62.81;98851.52;107222;1262;72664;-39
2023/11/20 04:39:09;;;;;;;7.00;5.00;;;;;;;-1.15;62.86;98845.75;107244;1257;59531;-39
2023/11/20 04:41:39;;;;;;;6.40;4.90;;;;;;;-1.13;62.99;98845.77;107192;1260;59606;-39
2023/11/20 04:44:06;;;;;;;5.30;4.30;;;;;;;-1.08;62.86;98848.91;107243;1257;71749;-39
2023/11/20 04:46:34;;;;;;;8.00;5.00;;;;;;;-1.06;62.58;98848.08;107267;1257;67544;-39
2023/11/20 04:49:02;;;;;;;6.90;5.20;;;;;;;-1.07;62.30;98847.09;107234;1257;72702;-39
2023/11/20 04:51:30;;;;;;;7.60;5.70;;;;;;;-1.06;62.30;98853.25;107224;1257;59657;-39
2023/11/20 04:53:57;;;;;;;7.30;5.50;;;;;;;-1.10;62.28;98850.86;107244;1257;59525;-38
2023/11/20 04:56:25;;;;;;;9.00;6.30;;;;;;;-1.13;62.18;98850.98;107190;1257;71846;-38
2023/11/20 04:58:52;;;;;;;9.30;6.50;;;;;;;-1.18;62.14;98855.12;107116;1257;66359;-38
2023/11/20 05:01:22;;;;;;;7.40;5.90;;;;;;;-1.22;62.15;98841.05;107179;1257;71389;-38
2023/11/20 05:03:50;;;;;;;9.00;6.10;;;;;;;-1.27;62.25;98844.23;107273;1257;59734;-38
2023/11/20 05:06:17;;;;;;;7.00;5.40;;;;;;;-1.43;62.30;98830.25;107156;1256;59554;-38
2023/11/20 05:08:46;;;;;;;7.40;5.60;;;;;;;-1.38;62.41;98842.92;107138;1257;72075;-39
2023/11/20 05:11:14;;;;;;;6.60;4.90;;;;;;;-1.41;62.52;98843.20;107145;1257;67574;-39
2023/11/20 05:13:44;;;;;;;8.10;5.20;;;;;;;-1.45;62.31;98844.17;107095;1257;73405;-39
2023/11/20 05:16:12;;;;;;;7.00;5.30;;;;;;;-1.50;62.69;98842.77;107215;1257;59528;-39
2023/11/20 05:18:39;;;;;;;6.80;5.00;;;;;;;-1.51;62.96;98848.13;107173;1257;60013;-39
2023/11/20 05:21:07;;;;;;;9.40;5.40;;;;;;;-1.53;62.78;98854.95;107178;1257;71817;-39
2023/11/20 05:23:34;;;;;;;7.50;5.50;;;;;;;-1.56;62.65;98850.96;107174;1256;66616;-39
2023/11/20 05:26:03;;;;;;;9.30;4.60;;;;;;;-1.60;62.51;98855.60;107249;1257;72474;-39
2023/11/20 05:28:31;;;;;;;5.00;4.00;;;;;;;-1.64;62.79;98855.09;107246;1257;60267;-39
2023/11/20 05:30:58;;;;;;;8.70;5.60;;;;;;;-1.69;63.06;98852.78;107224;1257;60532;-39
2023/11/20 05:33:26;;;;;;;9.80;6.00;;;;;;;-1.70;63.29;98853.81;107130;1257;73872;-39
2023/11/20 05:35:54;;;;;;;9.10;6.00;;;;;;;-1.69;63.33;98855.35;107150;1257;67643;-39
2023/11/20 05:38:21;;;;;;;9.70;6.40;;;;;;;-1.68;63.34;98856.05;107229;1257;72249;-39
2023/11/20 05:40:48;;;;;;;9.60;6.10;;;;;;;-1.68;63.33;98857.70;107217;1257;60914;-39
2023/11/20 05:43:16;;;;;;;8.20;6.10;;;;;;;-1.60;63.34;98862.25;107215;1257;60373;-39
2023/11/20 05:45:44;;;;;;;11.30;6.60;;;;;;;-1.49;63.28;98860.79;107216;1257;73842;-39
2023/11/20 05:48:11;;;;;;;10.30;6.80;;;;;;;-1.45;63.21;98861.91;107189;1257;67589;-39
2023/11/20 05:50:39;;;;;;;10.10;6.80;;;;;;;-1.43;63.31;98860.62;107211;1257;73022;-39
2023/11/20 05:53:06;;;;;;;15.60;7.00;;;;;;;-1.39;63.41;98857.79;107229;1256;60463;-38
2023/11/20 05:55:34;;;;;;;12.20;6.80;;;;;;;-1.33;63.36;98861.63;107205;1256;60392;-38
2023/11/20 05:58:02;;;;;;;10.90;6.70;;;;;;;-1.27;63.15;98860.02;107103;1257;73870;-39
2023/11/20 06:00:31;;;;;;;11.00;7.50;;;;;;;-1.27;62.80;98865.98;107104;1257;67566;-39
2023/11/20 06:02:59;;;;;;;11.30;6.60;;;;;;;-1.28;62.83;98869.82;107224;1257;72731;-39
2023/11/20 06:05:27;;;;;;;9.70;6.30;;;;;;;-1.29;62.60;98866.06;107128;1257;60556;-39
2023/11/20 06:07:54;;;;;;;8.90;5.90;;;;;;;-1.32;62.77;98870.21;107198;1257;60376;-39
2023/11/20 06:10:22;;;;;;;11.20;6.40;;;;;;;-1.33;62.87;98872.30;107120;1258;73981;-39
2023/11/20 06:12:51;;;;;;;9.70;6.00;;;;;;;-1.32;63.09;98871.71;107253;1257;67592;-39
2023/11/20 06:15:19;;;;;;;10.40;6.40;;;;;;;-1.33;62.85;98869.01;107182;1257;71462;-39
2023/11/20 06:17:47;;;;;;;9.20;6.20;;;;;;;-1.36;62.84;98869.48;107219;1257;60168;-39
2023/11/20 06:20:14;;;;;;;9.50;6.50;;;;;;;-1.35;62.95;98872.70;107231;1257;60517;-39
2023/11/20 06:22:42;;;;;;;8.50;6.00;;;;;;;-1.33;62.90;98873.05;107186;1257;73872;-39
2023/11/20 06:25:12;;;;;;;10.50;7.10;;;;;;;-1.33;62.96;98871.61;107248;1257;66641;-39
2023/11/20 06:27:40;;;;;;;10.50;6.30;;;;;;;-1.33;62.86;98874.10;107221;1260;72614;-39
2023/11/20 06:30:09;;;;;;;8.50;6.20;;;;;;;-1.33;62.90;98874.33;107244;1257;60348;-39
2023/11/20 06:32:37;;;;;;;9.20;5.70;;;;;;;-1.33;62.89;98871.19;106487;1257;1003607;-39
2023/11/20 06:35:05;;;;;;;8.10;6.20;;;;;;;-1.37;62.59;98873.06;107123;1257;73853;-39
2023/11/20 06:37:32;;;;;;;10.30;6.10;;;;;;;-1.41;62.80;98870.95;107154;1257;67883;-39
2023/11/20 06:40:00;;;;;;;12.20;7.20;;;;;;;-1.42;62.94;98874.12;107038;1257;72507;-39
2023/11/20 06:42:27;;;;;;;10.10;6.10;;;;;;;-1.42;63.14;98874.12;107186;1257;60552;-39
2023/11/20 06:44:55;;;;;;;9.40;5.40;;;;;;;-1.42;63.14;98876.23;107228;1260;60322;-39
2023/11/20 06:47:22;;;;;;;9.10;5.50;;;;;;;-1.31;63.26;98873.98;107228;1258;74021;-39
2023/11/20 06:49:50;;;;;;;7.90;5.50;;;;;;;-1.18;63.06;98871.83;107260;1256;66409;-39
2023/11/20 06:52:17;;;;;;;9.80;5.60;;;;;;;-1.15;63.08;98871.98;107209;1257;73198;-39
2023/11/20 06:54:45;;;;;;;7.70;5.40;;;;;;;-1.11;63.14;98868.61;107229;1257;60415;-39
2023/11/20 06:57:13;;;;;;;10.10;6.30;;;;;;;-1.05;62.99;98864.88;107236;1260;60309;-39
2023/11/20 06:59:40;;;;;;;8.30;5.80;;;;;;;-0.99;62.90;98865.71;107251;1257;72554;-39
2023/11/20 07:02:09;;;;;;;7.60;5.80;;;;;;;-0.94;62.57;98867.26;107252;1257;67523;-39
2023/11/20 07:04:38;;;;;;;9.90;6.20;;;;;;;-0.90;62.49;98871.87;107257;1257;72656;-39
2023/11/20 07:07:06;;;;;;;7.10;4.80;;;;;;;-0.89;62.26;98875.80;107147;1257;60463;-39
2023/11/20 07:09:35;;;;;;;12.90;6.10;;;;;;;-0.89;62.29;98873.08;107133;1260;60453;-37
2023/11/20 07:12:04;;;;;;;9.00;6.20;;;;;;;-0.87;62.33;98873.35;107123;1256;73868;-37
2023/11/20 07:14:31;;;;;;;11.00;6.90;;;;;;;-0.85;62.25;98877.52;107259;1257;66308;-38
2023/11/20 07:16:59;;;;;;;9.00;6.30;;;;;;;-0.83;62.21;98879.63;107258;1256;71427;-38
2023/11/20 07:19:26;;;;;;;10.00;6.30;;;;;;;-0.81;62.21;98885.64;107422;1253;61054;-38
2023/11/20 07:21:54;;;;;;;8.40;6.50;;;;;;;-0.82;62.19;98889.43;107474;1253;59341;-38
2023/11/20 07:24:25;;;;;;;8.70;6.10;;;;;;;-0.82;62.31;98889.36;107360;1253;73852;-38
2023/11/20 07:26:52;;;;;;;9.00;6.20;;;;;;;-0.83;62.43;98892.98;107378;1253;66721;-38
2023/11/20 07:29:20;;;;;;;9.50;6.10;;;;;;;-0.82;62.65;98895.08;107453;1257;71451;-38
2023/11/20 07:31:47;;;;;;;9.70;6.30;;;;;;;-0.77;62.59;98894.41;107442;1257;60295;-38
2023/11/20 07:34:18;;;;;;;6.80;5.60;;;;;;;-0.73;62.63;98896.30;107466;1254;60315;-39
2023/11/20 07:36:46;;;;;;;8.20;6.00;;;;;;;-0.68;62.41;98899.55;107419;1253;73887;-39
2023/11/20 07:39:14;;;;;;;7.90;6.00;;;;;;;-0.64;62.26;98896.43;107501;1253;67586;-39
2023/11/20 07:41:41;;;;;;;9.30;6.90;;;;;;;-0.61;62.37;98896.46;107483;1253;72680;-39
2023/11/20 07:44:09;;;;;;;9.50;6.30;;;;;;;-0.60;62.20;98892.30;107386;1259;59688;-39
2023/11/20 07:46:37;;;;;;;18.40;7.00;;;;;;;-0.62;62.31;98891.73;107370;1259;59578;-39
2023/11/20 07:49:06;;;;;;;13.70;7.90;;;;;;;-0.65;62.43;98886.49;107501;1253;72582;-39
2023/11/20 07:51:34;;;;;;;10.10;6.70;;;;;;;-0.67;62.68;98883.73;107372;1253;67891;-39
2023/11/20 07:54:02;;;;;;;10.70;6.20;;;;;;;-0.56;62.82;98882.42;107447;1254;70502;-39
2023/11/20 07:56:30;;;;;;;15.80;7.20;;;;;;;-0.46;62.71;98878.16;107371;1253;60421;-39
2023/11/20 07:58:57;;;;;;;11.50;8.10;;;;;;;-0.41;62.50;98877.46;107448;1254;60075;-39
2023/11/20 08:01:25;;;;;;;11.50;6.40;;;;;;;-0.36;62.58;98873.67;107471;1253;73831;-39
2023/11/20 08:03:53;;;;;;;22.30;7.40;;;;;;;-0.27;62.54;98866.74;107477;1253;66305;-39
2023/11/20 08:06:20;;;;;;;11.30;7.00;;;;;;;-0.14;62.57;98863.04;107298;1256;72719;-39
2023/11/20 08:08:48;;;;;;;9.20;6.90;;;;;;;0.00;62.35;98860.46;107354;1254;60321;-38
2023/11/20 08:11:17;;;;;;;11.70;7.60;;;;;;;0.11;61.97;98862.08;107246;1253;59578;-39
2023/11/20 08:13:44;;;;;;;12.10;8.40;;;;;;;0.14;61.85;98861.94;107396;1253;73894;-39
2023/11/20 08:16:12;;;;;;;13.40;8.30;;;;;;;0.19;61.76;98861.73;107416;1254;67576;-38
2023/11/20 08:18:40;;;;;;;9.80;7.60;;;;;;;0.20;61.77;98859.79;107443;1254;71817;-39
2023/11/20 08:21:07;;;;;;;10.80;7.70;;;;;;;0.25;61.73;98856.35;107533;1253;60377;-39
2023/11/20 08:23:35;;;;;;;9.60;7.30;;;;;;;0.32;61.32;98849.63;106784;1254;1002955;-39
2023/11/20 08:26:04;;;;;;;11.10;7.70;;;;;;;0.37;61.37;98847.80;107508;1254;74006;-39
2023/11/20 08:28:32;;;;;;;13.00;8.20;;;;;;;0.45;61.04;98843.85;107535;1254;67849;-39
2023/11/20 08:30:59;;;;;;;14.10;7.80;;;;;;;0.49;60.65;98840.46;107505;1256;72048;-39
2023/11/20 08:33:27;;;;;;;11.80;6.70;;;;;;;0.47;60.69;98830.75;107554;1256;60447;-39
2023/11/20 08:35:57;;;;;;;11.60;7.30;;;;;;;0.63;60.18;98840.53;107610;1254;60454;-39
2023/11/20 08:38:24;;;;;;;11.70;6.60;;;;;;;0.69;60.49;98837.02;107562;1254;73919;-40
2023/11/20 08:40:52;;;;;;;10.20;6.60;;;;;;;0.80;60.45;98832.67;107574;1254;67966;-39
2023/11/20 08:43:20;;;;;;;10.90;6.80;;;;;;;0.88;59.68;98829.13;107619;1254;74914;-39
2023/11/20 08:45:47;;;;;;;11.00;7.10;;;;;;;0.94;59.72;98827.31;107519;1254;60344;-39
2023/11/20 08:48:19;;;;;;;10.90;7.40;;;;;;;1.00;59.73;98824.42;107499;1253;59995;-39
2023/11/20 08:50:47;;;;;;;10.10;6.50;;;;;;;1.08;59.93;98821.63;107490;1253;74441;-39
2023/11/20 08:53:15;;;;;;;10.50;6.90;;;;;;;1.23;59.81;98822.42;107397;1254;66505;-39
2023/11/20 08:55:42;;;;;;;10.30;7.30;;;;;;;1.38;59.43;98820.79;107384;1254;72679;-39
2023/11/20 08:58:11;;;;;;;10.30;7.20;;;;;;;1.50;59.16;98816.61;107359;1253;59598;-39
2023/11/20 09:00:39;;;;;;;10.40;7.40;;;;;;;1.63;58.99;98815.59;107360;1254;60552;-39
2023/11/20 09:03:07;;;;;;;10.20;6.70;;;;;;;1.72;58.54;98816.01;107458;1253;73046;-39
2023/11/20 09:05:35;;;;;;;11.50;7.40;;;;;;;1.81;58.48;98811.29;107483;1257;67901;-39
2023/11/20 09:08:03;;;;;;;9.70;7.10;;;;;;;1.96;58.22;98813.13;107394;1254;71473;-39
2023/11/20 09:10:31;;;;;;;11.90;7.80;;;;;;;2.08;57.74;98812.53;107456;1257;60515;-39
2023/11/20 09:12:58;;;;;;;10.50;6.50;;;;;;;2.18;57.34;98805.63;107462;1254;59637;-39
2023/11/20 09:15:26;;;;;;;9.40;6.70;;;;;;;2.22;57.01;98801.48;107467;1254;72642;-38
2023/11/20 09:17:54;;;;;;;11.50;7.50;;;;;;;2.27;56.59;98802.74;107476;1254;67777;-39
2023/11/20 09:20:23;;;;;;;9.30;6.70;;;;;;;2.32;56.74;98796.13;107352;1254;71519;-39
2023/11/20 09:22:50;;;;;;;30.80;8.10;;;;;;;2.41;56.35;98797.64;107437;1258;60424;-39
2023/11/20 09:25:18;;;;;;;11.50;7.20;;;;;;;2.47;56.65;98796.88;107474;1258;60060;-39
2023/11/20 09:27:47;;;;;;;10.60;7.30;;;;;;;2.59;56.62;98797.40;107507;1254;73841;-39
2023/11/20 09:30:16;;;;;;;10.40;6.70;;;;;;;2.72;56.37;98793.73;107521;1254;67578;-39
2023/11/20 09:32:44;;;;;;;10.40;6.60;;;;;;;2.85;56.00;98786.79;107452;1254;71525;-39
2023/11/20 09:35:12;;;;;;;9.10;6.80;;;;;;;3.00;55.85;98782.55;107526;1257;60524;-39
2023/11/20 09:37:39;;;;;;;9.30;6.50;;;;;;;3.18;55.65;98782.22;107374;1254;60358;-39
2023/11/20 09:40:08;;;;;;;9.20;7.00;;;;;;;3.37;55.16;98779.36;107435;1254;73860;-39
2023/11/20 09:42:36;;;;;;;10.20;7.10;;;;;;;3.55;54.84;98780.49;107543;1257;66680;-39
2023/11/20 09:45:04;;;;;;;11.00;7.30;;;;;;;3.72;53.92;98781.38;107454;1254;72726;-39
2023/11/20 09:47:32;;;;;;;9.60;7.10;;;;;;;3.84;53.79;98776.21;107324;1254;59280;-39
2023/11/20 09:49:59;;;;;;;10.90;6.80;;;;;;;3.96;53.26;98775.01;107292;1254;60303;-39
2023/11/20 09:52:27;;;;;;;11.20;8.70;;;;;;;4.06;52.70;98774.16;107354;1254;73855;-39
2023/11/20 09:54:58;;;;;;;10.90;8.80;;;;;;;4.17;52.17;98769.31;107463;1254;66659;-40
2023/11/20 09:57:27;;;;;;;11.60;9.10;;;;;;;4.19;52.01;98757.89;107360;1254;71563;-39
2023/11/20 09:59:55;;;;;;;10.70;7.70;;;;;;;4.28;51.72;98768.31;107363;1256;60548;-41
2023/11/20 10:02:24;;;;;;;9.40;6.30;;;;;;;4.32;51.77;98766.75;107440;1254;60353;-40
2023/11/20 10:04:53;;;;;;;10.40;6.90;;;;;;;4.34;51.42;98761.40;107491;1254;76106;-39
2023/11/20 10:07:24;;;;;;;8.40;6.70;;;;;;;4.38;51.37;98759.27;107399;1259;66497;-39
2023/11/20 10:09:52;;;;;;;9.30;6.70;;;;;;;4.44;51.42;98757.25;107927;1254;71450;-40
2023/11/20 10:12:20;;;;;;;9.40;7.30;;;;;;;4.53;51.47;98758.11;107473;1254;60412;-39
2023/11/20 10:14:48;;;;;;;10.20;7.90;;;;;;;4.69;51.03;98760.26;107433;1254;62242;-39
2023/11/20 10:17:16;;;;;;;11.50;8.90;;;;;;;4.86;50.19;98758.79;107523;1254;72725;-40
2023/11/20 10:19:44;;;;;;;11.70;8.70;;;;;;;4.95;49.69;98760.83;107324;1253;67548;-40
2023/11/20 10:22:12;;;;;;;11.60;9.20;;;;;;;4.96;49.54;98757.93;107314;1254;72795;-40
2023/11/20 10:24:41;;;;;;;11.20;7.90;;;;;;;5.00;49.57;98758.45;107348;1254;60200;-40
2023/11/20 10:27:09;;;;;;;11.60;8.50;;;;;;;5.11;49.32;98755.95;107469;1254;59588;-37
2023/11/20 10:29:38;;;;;;;14.20;9.60;;;;;;;5.22;48.89;98760.72;107411;1254;72624;-38
2023/11/20 10:32:07;;;;;;;11.50;8.90;;;;;;;5.31;49.10;98760.61;107423;1254;68181;-38
2023/11/20 10:34:34;;;;;;;9.80;7.40;;;;;;;5.47;48.74;98755.41;107372;1254;72801;-38
2023/11/20 10:37:08;;;;;;;12.10;8.50;;;;;;;5.63;48.19;98758.86;107406;1254;60444;-39
2023/11/20 10:39:37;;;;;;;11.10;7.60;;;;;;;5.76;47.88;98758.23;107529;1254;60454;-39
2023/11/20 10:42:05;;;;;;;8.20;6.80;;;;;;;5.90;47.83;98760.64;107288;1255;73944;-39
2023/11/20 10:44:35;;;;;;;11.90;9.30;;;;;;;6.05;47.57;98760.76;107469;1256;67538;-39
2023/11/20 10:47:05;;;;;;;14.10;10.50;;;;;;;6.18;47.17;98758.25;107454;1254;71902;-39
2023/11/20 10:49:34;;;;;;;14.30;10.90;;;;;;;6.29;46.06;98753.55;107380;1257;60468;-39
2023/11/20 10:52:03;;;;;;;17.60;12.60;;;;;;;6.25;46.20;98760.89;107302;1254;60354;-39
2023/11/20 10:54:41;;;;;;;15.80;11.00;;;;;;;6.31;46.78;98762.81;107460;1254;72679;-39
2023/11/20 10:57:08;;;;;;;15.10;11.30;;;;;;;6.48;45.89;98764.19;107466;1254;67899;-39
2023/11/20 10:59:36;;;;;;;14.50;9.90;;;;;;;6.52;45.99;98761.98;107291;1257;72671;-39
2023/11/20 11:02:08;;;;;;;14.80;11.30;;;;;;;6.58;46.02;98765.06;107222;1254;60494;-39
2023/11/20 11:04:37;;;;;;;14.40;11.20;;;;;;;6.67;45.36;98766.12;107342;1258;60335;-38
2023/11/20 11:07:04;;;;;;;17.40;12.90;;;;;;;6.64;45.14;98766.51;107444;1254;73005;-39
2023/11/20 11:09:33;;;;;;;15.30;10.90;;;;;;;6.57;45.58;98767.64;107246;1261;68243;-39
2023/11/20 11:12:00;;;;;;;15.60;11.70;;;;;;;6.63;45.64;98767.62;107370;1254;71455;-39
2023/11/20 11:14:28;;;;;;;13.10;10.20;;;;;;;6.73;44.97;98774.05;107451;1254;60449;-39
2023/11/20 11:17:01;;;;;;;18.20;12.10;;;;;;;6.76;44.94;98767.98;107467;1254;60335;-39
2023/11/20 11:19:35;;;;;;;17.40;12.00;;;;;;;6.90;45.04;98764.84;107498;1254;74269;-39
2023/11/20 11:22:03;;;;;;;14.70;10.20;;;;;;;7.15;44.91;98757.16;107498;1254;66631;-39
2023/11/20 11:24:31;;;;;;;11.60;9.10;;;;;;;7.38;44.23;98756.77;107370;1257;72654;-39
2023/11/20 11:27:01;;;;;;;13.70;9.80;;;;;;;7.55;43.44;98758.66;107448;1257;60559;-39